Terminal Aerodrome Forecast
Issued by NWS

Home | Current Version | Previous Version | Text Only | Print | Product List | Glossary On
Versions: 1 2 3 4 5 6 7 8 9 10 11 12 13
604
FTUS45 KPIH 060706 AAA
TAFSUN
TAF AMD
KSUN 060706Z 0607/0706 32008KT P6SM VCSH SCT060 BKN090
      TEMPO 0609/0610 -TSRA SCT045CB BKN060 OVC090
     FM061800 05012G20KT P6SM VCTS SCT050CB BKN090
     FM070300 30012G20KT P6SM VCSH BKN050=

USA.gov is the U.S. government's official web portal to all federal, state and local government web resources and services.